createdAt,value
2022-10-23T00:01:40.982Z,99264.60
2022-10-23T00:04:13.444Z,99275.80
2022-10-23T00:06:41.692Z,99277.60
2022-10-23T00:09:10.440Z,99278.40
2022-10-23T00:11:38.876Z,99277.00
2022-10-23T00:14:07.136Z,99282.40
2022-10-23T00:16:34.890Z,99289.40
2022-10-23T00:19:03.224Z,99288.40
2022-10-23T00:21:30.923Z,99289.40
2022-10-23T00:23:58.922Z,99289.80
2022-10-23T00:26:26.983Z,99298.60
2022-10-23T00:28:54.997Z,99303.60
2022-10-23T00:31:23.374Z,99302.40
2022-10-23T00:33:51.505Z,99302.40
2022-10-23T00:36:20.785Z,99311.00
2022-10-23T00:38:49.079Z,99315.80
2022-10-23T00:41:22.259Z,99313.00
2022-10-23T00:44:17.677Z,99309.00
2022-10-23T00:46:46.469Z,99305.40
2022-10-23T00:49:14.436Z,99305.80
2022-10-23T00:51:53.812Z,99304.60
2022-10-23T00:54:24.786Z,99300.40
2022-10-23T00:56:56.304Z,99307.20
2022-10-23T00:59:24.358Z,99308.60
2022-10-23T01:01:52.473Z,99309.20
2022-10-23T01:04:20.507Z,99316.20
2022-10-23T01:07:07.245Z,99318.40
2022-10-23T01:09:39.804Z,99318.80
2022-10-23T01:12:19.943Z,99322.60
2022-10-23T01:15:20.544Z,99319.80
2022-10-23T01:18:25.064Z,99322.40
2022-10-23T01:21:02.104Z,99328.40
2022-10-23T01:23:46.609Z,99329.40
2022-10-23T01:26:31.266Z,99321.00
2022-10-23T01:29:13.066Z,99315.00
2022-10-23T01:31:46.366Z,99318.60
2022-10-23T01:34:22.762Z,99320.40
2022-10-23T01:36:52.337Z,99323.00
2022-10-23T01:39:28.017Z,99325.00
2022-10-23T01:42:11.203Z,99322.80
2022-10-23T01:44:46.894Z,99319.80
2022-10-23T01:47:17.805Z,99319.00
2022-10-23T01:49:54.265Z,99321.00
2022-10-23T01:52:22.423Z,99318.40
2022-10-23T01:54:51.941Z,99319.40
2022-10-23T01:57:21.033Z,99324.60
2022-10-23T01:59:55.824Z,99327.40
2022-10-23T02:02:24.122Z,99326.00
2022-10-23T02:05:17.502Z,99324.20
2022-10-23T02:07:45.553Z,99330.20
2022-10-23T02:10:13.877Z,99326.00
2022-10-23T02:13:06.196Z,99327.00
2022-10-23T02:15:48.390Z,99325.20
2022-10-23T02:18:50.972Z,99331.20
2022-10-23T02:21:34.401Z,99335.60
2022-10-23T02:24:17.735Z,99335.60
2022-10-23T02:27:18.907Z,99343.80
2022-10-23T02:29:56.289Z,99342.80
2022-10-23T02:32:25.771Z,99344.80
2022-10-23T02:34:53.639Z,99342.00
2022-10-23T02:39:54.310Z,99348.20
2022-10-23T02:42:34.660Z,99344.40
2022-10-23T02:45:20.103Z,99349.40
2022-10-23T02:48:01.788Z,99349.40
2022-10-23T02:51:11.767Z,99347.20
2022-10-23T02:54:09.770Z,99347.40
2022-10-23T02:56:47.656Z,99349.80
2022-10-23T02:59:31.689Z,99341.60
2022-10-23T03:02:08.942Z,99346.20
2022-10-23T03:04:39.005Z,99351.00
2022-10-23T03:07:11.158Z,99344.80
2022-10-23T03:09:38.958Z,99348.40
2022-10-23T03:12:06.788Z,99348.60
2022-10-23T03:14:34.837Z,99352.00
2022-10-23T03:17:04.530Z,99356.20
2022-10-23T03:19:32.228Z,99357.40
2022-10-23T03:22:00.154Z,99364.60
2022-10-23T03:24:28.292Z,99361.80
2022-10-23T03:26:56.031Z,99359.80
2022-10-23T03:29:31.172Z,99362.40
2022-10-23T03:31:58.908Z,99364.00
2022-10-23T03:34:27.110Z,99365.60
2022-10-23T03:36:54.912Z,99369.20
2022-10-23T03:39:22.681Z,99368.40
2022-10-23T03:41:50.494Z,99371.40
2022-10-23T03:44:18.569Z,99375.60
2022-10-23T03:46:46.847Z,99378.00
2022-10-23T03:49:14.593Z,99380.80
2022-10-23T03:51:44.992Z,99383.20
2022-10-23T03:54:12.718Z,99380.60
2022-10-23T03:56:40.562Z,99386.40
2022-10-23T03:59:09.073Z,99386.20
2022-10-23T04:01:36.927Z,99391.60
2022-10-23T04:04:04.982Z,99390.80
2022-10-23T04:06:32.972Z,99395.20
2022-10-23T04:09:01.182Z,99396.40
2022-10-23T04:11:29.070Z,99397.80
2022-10-23T04:13:56.873Z,99398.60
2022-10-23T04:16:25.245Z,99402.40
2022-10-23T04:18:53.075Z,99402.00
2022-10-23T04:21:20.870Z,99399.20
2022-10-23T04:23:48.633Z,99402.00
2022-10-23T04:26:18.809Z,99402.00
2022-10-23T04:28:46.613Z,99401.00
2022-10-23T04:31:14.404Z,99399.00
2022-10-23T04:33:43.442Z,99403.80
2022-10-23T04:36:26.227Z,99402.80
2022-10-23T04:38:53.979Z,99403.00
2022-10-23T04:41:21.832Z,99406.00
2022-10-23T04:43:49.867Z,99402.40
2022-10-23T04:46:18.428Z,99397.40
2022-10-23T04:48:48.404Z,99389.20
2022-10-23T04:51:30.587Z,99391.20
2022-10-23T04:54:11.566Z,99393.00
2022-10-23T04:56:52.567Z,99387.40
2022-10-23T04:59:22.140Z,99390.00
2022-10-23T05:01:50.118Z,99390.40
2022-10-23T05:04:19.418Z,99393.00
2022-10-23T05:07:06.053Z,99397.40
2022-10-23T05:10:04.551Z,99397.60
2022-10-23T05:12:40.562Z,99401.00
2022-10-23T05:15:09.550Z,99399.00
2022-10-23T05:17:38.281Z,99402.20
2022-10-23T05:20:09.749Z,99401.60
2022-10-23T05:22:39.716Z,99405.60
2022-10-23T05:25:11.665Z,99404.00
2022-10-23T05:27:41.421Z,99407.40
2022-10-23T05:30:13.555Z,99410.40
2022-10-23T05:32:41.575Z,99404.20
2022-10-23T05:35:14.374Z,99402.40
2022-10-23T05:37:43.766Z,99403.80
2022-10-23T05:40:15.452Z,99399.60
2022-10-23T05:42:44.537Z,99402.80
2022-10-23T05:45:16.405Z,99402.00
2022-10-23T05:48:22.488Z,99404.60
2022-10-23T05:51:24.356Z,99408.00
2022-10-23T05:54:22.296Z,99418.20
2022-10-23T05:57:01.826Z,99414.20
2022-10-23T05:59:52.468Z,99423.20
2022-10-23T06:02:39.139Z,99423.80
2022-10-23T06:05:12.062Z,99426.60
2022-10-23T06:07:39.899Z,99426.60
2022-10-23T06:10:08.904Z,99431.00
2022-10-23T06:12:40.492Z,99428.80
2022-10-23T06:15:15.858Z,99428.20
2022-10-23T06:18:04.574Z,99434.40
2022-10-23T06:20:42.366Z,99437.40
2022-10-23T06:23:14.097Z,99439.20
2022-10-23T06:26:03.707Z,99443.40
2022-10-23T06:29:01.031Z,99449.00
2022-10-23T06:31:29.638Z,99455.60
2022-10-23T06:34:00.075Z,99453.80
2022-10-23T06:36:29.548Z,99451.00
2022-10-23T06:39:05.610Z,99453.80
2022-10-23T06:41:59.303Z,99466.00
2022-10-23T06:44:53.253Z,99465.40
2022-10-23T06:47:40.093Z,99461.60
2022-10-23T06:50:27.966Z,99454.20
2022-10-23T06:52:57.299Z,99457.00
2022-10-23T06:55:25.201Z,99462.60
2022-10-23T06:57:53.769Z,99467.40
2022-10-23T07:00:21.716Z,99468.40
2022-10-23T07:02:53.375Z,99469.00
2022-10-23T07:05:21.365Z,99466.80
2022-10-23T07:07:49.320Z,99466.80
2022-10-23T07:10:22.501Z,99464.40
2022-10-23T07:13:01.192Z,99469.40
2022-10-23T07:15:41.060Z,99472.40
2022-10-23T07:18:16.694Z,99469.60
2022-10-23T07:21:07.737Z,99467.20
2022-10-23T07:23:35.959Z,99462.20
2022-10-23T07:26:11.549Z,99466.00
2022-10-23T07:28:39.446Z,99462.20
2022-10-23T07:31:07.681Z,99462.20
2022-10-23T07:33:55.538Z,99460.80
2022-10-23T07:36:23.394Z,99456.40
2022-10-23T07:38:51.810Z,99453.00
2022-10-23T07:41:19.841Z,99451.20
2022-10-23T07:43:47.658Z,99452.00
2022-10-23T07:46:15.529Z,99449.40
2022-10-23T07:48:43.639Z,99453.20
2022-10-23T07:51:14.500Z,99450.60
2022-10-23T07:53:56.424Z,99445.20
2022-10-23T07:56:44.625Z,99444.20
2022-10-23T07:59:13.481Z,99451.80
2022-10-23T08:01:47.374Z,99458.80
2022-10-23T08:04:16.026Z,99454.40
2022-10-23T08:06:51.143Z,99457.20
2022-10-23T08:09:19.399Z,99454.60
2022-10-23T08:11:48.505Z,99456.00
2022-10-23T08:14:17.811Z,99456.80
2022-10-23T08:16:46.989Z,99455.40
2022-10-23T08:19:17.484Z,99455.60
2022-10-23T08:21:46.442Z,99465.40
2022-10-23T08:24:14.892Z,99454.00
2022-10-23T08:26:44.997Z,99455.60
2022-10-23T08:29:14.126Z,99446.60
2022-10-23T08:31:43.934Z,99441.80
2022-10-23T08:34:32.327Z,99450.00
2022-10-23T08:37:01.272Z,99446.60
2022-10-23T08:39:29.900Z,99456.00
2022-10-23T08:42:26.301Z,99457.20
2022-10-23T08:45:17.210Z,99463.80
2022-10-23T08:47:48.857Z,99462.40
2022-10-23T08:50:35.402Z,99467.20
2022-10-23T08:53:22.707Z,99462.00
2022-10-23T08:56:03.964Z,99460.00
2022-10-23T08:58:46.151Z,99464.80
2022-10-23T09:01:41.158Z,99471.80
2022-10-23T09:04:12.482Z,99469.00
2022-10-23T09:07:11.166Z,99468.60
2022-10-23T09:09:53.194Z,99474.20
2022-10-23T09:12:23.123Z,99475.40
2022-10-23T09:14:56.828Z,99471.80
2022-10-23T09:17:26.936Z,99472.80
2022-10-23T09:20:19.102Z,99470.40
2022-10-23T09:23:00.801Z,99473.60
2022-10-23T09:25:34.093Z,99475.00
2022-10-23T09:28:05.249Z,99476.60
2022-10-23T09:30:41.770Z,99482.20
2022-10-23T09:33:25.429Z,99484.60
2022-10-23T09:36:07.224Z,99483.00
2022-10-23T09:38:58.952Z,99484.40
2022-10-23T09:41:38.259Z,99484.00
2022-10-23T09:44:09.060Z,99493.00
2022-10-23T09:46:46.170Z,99496.60
2022-10-23T09:49:23.833Z,99489.20
2022-10-23T09:52:05.357Z,99491.40
2022-10-23T09:54:37.551Z,99496.20
2022-10-23T09:57:18.147Z,99493.20
2022-10-23T09:59:54.285Z,99483.60
2022-10-23T10:02:35.153Z,99484.00
2022-10-23T10:05:38.734Z,99491.00
2022-10-23T10:08:20.650Z,99481.40
2022-10-23T10:10:52.682Z,99484.80
2022-10-23T10:13:32.846Z,99480.60
2022-10-23T10:16:23.063Z,99478.60
2022-10-23T10:19:01.888Z,99477.00
2022-10-23T10:21:46.191Z,99473.20
2022-10-23T10:24:47.147Z,99476.20
2022-10-23T10:27:27.616Z,99474.40
2022-10-23T10:30:04.555Z,99480.80
2022-10-23T10:33:14.032Z,99483.60
2022-10-23T10:35:47.876Z,99476.20
2022-10-23T10:38:46.766Z,99470.40
2022-10-23T10:41:21.129Z,99469.80
2022-10-23T10:44:03.955Z,99472.40
2022-10-23T10:47:07.366Z,99473.40
2022-10-23T10:49:47.142Z,99467.80
2022-10-23T10:52:59.996Z,99466.40
2022-10-23T10:55:51.104Z,99463.20
2022-10-23T10:58:45.891Z,99458.60
2022-10-23T11:01:56.813Z,99460.40
2022-10-23T11:04:33.128Z,99463.80
2022-10-23T11:07:08.484Z,99466.40
2022-10-23T11:09:36.314Z,99464.20
2022-10-23T11:12:04.509Z,99467.00
2022-10-23T11:14:33.658Z,99462.40
2022-10-23T11:17:21.173Z,99460.40
2022-10-23T11:19:54.886Z,99459.80
2022-10-23T11:22:43.761Z,99460.20
2022-10-23T11:25:38.951Z,99454.40
2022-10-23T11:28:30.570Z,99445.40
2022-10-23T11:31:24.172Z,99445.60
2022-10-23T11:33:55.694Z,99444.60
2022-10-23T11:36:45.999Z,99442.80
2022-10-23T11:39:25.877Z,99435.60
2022-10-23T11:41:58.117Z,99436.00
2022-10-23T11:44:45.807Z,99426.80
2022-10-23T11:47:40.341Z,99424.60
2022-10-23T11:50:08.576Z,99424.60
2022-10-23T11:53:13.557Z,99421.40
2022-10-23T11:56:13.079Z,99415.80
2022-10-23T11:58:42.118Z,99414.40
2022-10-23T12:01:41.741Z,99415.40
2022-10-23T12:04:12.893Z,99413.80
2022-10-23T12:06:50.116Z,99411.60
2022-10-23T12:09:44.288Z,99411.20
2022-10-23T12:12:12.273Z,99407.80
2022-10-23T12:14:45.723Z,99410.20
2022-10-23T12:17:22.519Z,99405.60
2022-10-23T12:19:54.705Z,99403.00
2022-10-23T12:22:26.421Z,99403.40
2022-10-23T12:25:20.718Z,99402.80
2022-10-23T12:27:56.963Z,99403.00
2022-10-23T12:31:03.312Z,99399.60
2022-10-23T12:34:10.646Z,99399.20
2022-10-23T12:37:16.089Z,99392.80
2022-10-23T12:39:44.157Z,99396.60
2022-10-23T12:42:17.680Z,99390.20
2022-10-23T12:44:45.745Z,99397.60
2022-10-23T12:47:17.750Z,99388.60
2022-10-23T12:49:50.599Z,99388.20
2022-10-23T12:52:21.029Z,99382.20
2022-10-23T12:54:50.968Z,99376.20
2022-10-23T12:57:28.202Z,99372.60
2022-10-23T13:00:02.510Z,99369.60
2022-10-23T13:02:32.528Z,99372.80
2022-10-23T13:05:02.904Z,99372.40
2022-10-23T13:07:37.944Z,99373.80
2022-10-23T13:10:07.888Z,99376.60
2022-10-23T13:13:02.969Z,99376.20
2022-10-23T13:15:42.860Z,99375.40
2022-10-23T13:18:14.473Z,99377.40
2022-10-23T13:20:52.955Z,99375.00
2022-10-23T13:23:33.287Z,99373.60
2022-10-23T13:26:02.591Z,99386.60
2022-10-23T13:28:43.359Z,99378.60
2022-10-23T13:31:12.587Z,99375.80
2022-10-23T13:33:46.691Z,99377.80
2022-10-23T13:36:17.649Z,99378.40
2022-10-23T13:38:46.707Z,99380.40
2022-10-23T13:41:17.581Z,99377.40
2022-10-23T13:43:46.758Z,99374.20
2022-10-23T13:46:19.626Z,99374.60
2022-10-23T13:48:47.915Z,99368.60
2022-10-23T13:51:20.883Z,99367.80
2022-10-23T13:53:49.099Z,99371.20
2022-10-23T13:56:20.289Z,99372.00
2022-10-23T13:58:48.996Z,99370.00
2022-10-23T14:01:29.375Z,99366.00
2022-10-23T14:03:58.101Z,99357.40
2022-10-23T14:06:25.927Z,99356.80
2022-10-23T14:08:53.726Z,99352.80
2022-10-23T14:11:21.995Z,99346.20
2022-10-23T14:13:49.931Z,99347.80
2022-10-23T14:16:18.799Z,99346.80
2022-10-23T14:18:47.078Z,99339.80
2022-10-23T14:21:22.959Z,99340.80
2022-10-23T14:23:51.921Z,99336.20
2022-10-23T14:26:25.496Z,99339.60
2022-10-23T14:28:58.332Z,99332.20
2022-10-23T14:31:29.046Z,99329.00
2022-10-23T14:33:58.851Z,99326.40
2022-10-23T14:36:34.263Z,99333.80
2022-10-23T14:39:11.369Z,99328.20
2022-10-23T14:41:40.621Z,99328.00
2022-10-23T14:44:08.447Z,99324.40
2022-10-23T14:46:38.450Z,99326.60
2022-10-23T14:49:06.673Z,99316.40
2022-10-23T14:51:34.603Z,99318.40
2022-10-23T14:54:04.958Z,99320.00
2022-10-23T14:56:35.580Z,99325.20
2022-10-23T14:59:04.069Z,99325.20
2022-10-23T15:01:34.525Z,99320.20
2022-10-23T15:04:02.881Z,99319.60
2022-10-23T15:06:30.809Z,99321.00
2022-10-23T15:08:58.949Z,99326.40
2022-10-23T15:11:27.060Z,99323.60
2022-10-23T15:13:55.131Z,99321.20
2022-10-23T15:16:23.583Z,99326.20
2022-10-23T15:18:51.780Z,99320.60
2022-10-23T15:21:19.737Z,99327.60
2022-10-23T15:23:47.767Z,99324.00
2022-10-23T15:26:21.669Z,99328.40
2022-10-23T15:28:57.774Z,99328.80
2022-10-23T15:31:41.988Z,99326.60
2022-10-23T15:34:17.412Z,99330.60
2022-10-23T15:36:47.116Z,99333.00
2022-10-23T15:39:18.119Z,99332.80
2022-10-23T15:41:46.418Z,99333.60
2022-10-23T15:44:16.955Z,99329.00
2022-10-23T15:46:44.821Z,99330.20
2022-10-23T15:49:13.201Z,99332.00
2022-10-23T15:51:41.502Z,99340.00
2022-10-23T15:54:13.142Z,99338.00
2022-10-23T15:56:40.972Z,99339.80
2022-10-23T15:59:08.837Z,99331.60
2022-10-23T16:01:37.623Z,99338.00
2022-10-23T16:04:05.694Z,99341.00
2022-10-23T16:06:33.670Z,99340.00
2022-10-23T16:09:01.666Z,99341.00
2022-10-23T16:11:32.260Z,99344.00
2022-10-23T16:14:01.654Z,99348.60
2022-10-23T16:16:30.791Z,99353.40
2022-10-23T16:19:00.682Z,99360.60
2022-10-23T16:21:31.621Z,99360.40
2022-10-23T16:24:01.236Z,99359.60
2022-10-23T16:26:29.601Z,99359.00
2022-10-23T16:29:03.011Z,99365.60
2022-10-23T16:34:56.484Z,99362.80
2022-10-23T16:37:24.368Z,99359.00
2022-10-23T16:39:55.997Z,99363.00
2022-10-23T16:42:43.022Z,99352.60
2022-10-23T16:45:15.021Z,99358.40
2022-10-23T16:47:42.953Z,99359.80
2022-10-23T16:50:11.021Z,99358.80
2022-10-23T16:52:38.890Z,99354.80
2022-10-23T16:55:07.929Z,99357.40
2022-10-23T16:57:36.482Z,99363.20
2022-10-23T17:00:05.694Z,99362.00
2022-10-23T17:02:36.405Z,99356.40
2022-10-23T17:05:05.131Z,99361.20
2022-10-23T17:07:33.057Z,99357.60
2022-10-23T17:10:01.018Z,99360.60
2022-10-23T17:12:29.092Z,99356.60
2022-10-23T17:14:56.958Z,99355.40
2022-10-23T17:17:24.927Z,99357.60
2022-10-23T17:19:53.039Z,99360.00
2022-10-23T17:22:20.970Z,99360.20
2022-10-23T17:24:51.551Z,99357.20
2022-10-23T17:27:21.920Z,99354.40
2022-10-23T17:29:49.844Z,99355.20
2022-10-23T17:32:17.787Z,99353.00
2022-10-23T17:34:46.788Z,99355.60
2022-10-23T17:37:14.619Z,99353.00
2022-10-23T17:39:42.433Z,99359.60
2022-10-23T17:42:10.214Z,99367.20
2022-10-23T17:44:38.112Z,99360.00
2022-10-23T17:47:06.198Z,99364.40
2022-10-23T17:49:34.187Z,99359.40
2022-10-23T17:52:02.155Z,99362.60
2022-10-23T17:54:30.227Z,99360.80
2022-10-23T17:56:59.082Z,99362.00
2022-10-23T17:59:27.055Z,99363.40
2022-10-23T18:01:56.040Z,99355.60
2022-10-23T18:04:23.924Z,99355.00
2022-10-23T18:06:53.226Z,99356.20
2022-10-23T18:09:23.888Z,99354.40
2022-10-23T18:11:52.981Z,99355.40
2022-10-23T18:14:21.631Z,99357.60
2022-10-23T18:16:53.145Z,99354.00
2022-10-23T18:19:21.042Z,99358.80
2022-10-23T18:21:49.087Z,99361.60
2022-10-23T18:24:17.431Z,99359.80
2022-10-23T18:26:46.275Z,99358.80
2022-10-23T18:29:14.986Z,99353.80
2022-10-23T18:31:43.407Z,99345.20
2022-10-23T18:34:18.881Z,99348.60
2022-10-23T18:36:47.235Z,99354.60
2022-10-23T18:39:17.506Z,99353.40
2022-10-23T18:41:45.886Z,99363.20
2022-10-23T18:44:18.248Z,99365.80
2022-10-23T18:46:47.130Z,99357.60
2022-10-23T18:49:16.114Z,99355.80
2022-10-23T18:51:43.988Z,99357.20
2022-10-23T18:54:15.321Z,99362.80
2022-10-23T18:56:43.251Z,99356.00
2022-10-23T18:59:14.974Z,99364.80
2022-10-23T19:01:43.245Z,99361.60
2022-10-23T19:04:16.075Z,99363.20
2022-10-23T19:06:45.300Z,99357.40
2022-10-23T19:09:16.477Z,99359.60
2022-10-23T19:11:45.450Z,99351.60
2022-10-23T19:14:13.319Z,99357.60
2022-10-23T19:16:54.723Z,99347.60
2022-10-23T19:19:25.779Z,99345.00
2022-10-23T19:21:53.862Z,99340.40
2022-10-23T19:24:47.361Z,99334.60
2022-10-23T19:27:16.392Z,99325.60
2022-10-23T19:29:45.266Z,99322.00
2022-10-23T19:32:13.437Z,99327.80
2022-10-23T19:34:41.404Z,99322.80
2022-10-23T19:37:09.324Z,99322.00
2022-10-23T19:39:37.446Z,99318.60
2022-10-23T19:42:05.471Z,99317.40
2022-10-23T19:44:33.544Z,99326.00
2022-10-23T19:47:01.563Z,99319.80
2022-10-23T19:49:29.423Z,99318.40
2022-10-23T19:51:57.209Z,99319.40
2022-10-23T19:54:25.098Z,99323.80
2022-10-23T19:56:52.872Z,99318.40
2022-10-23T19:59:20.689Z,99319.60
2022-10-23T20:01:49.410Z,99320.40
2022-10-23T20:04:18.672Z,99317.00
2022-10-23T20:06:46.843Z,99309.20
2022-10-23T20:09:14.745Z,99308.00
2022-10-23T20:11:43.635Z,99310.20
2022-10-23T20:14:11.873Z,99307.00
2022-10-23T20:16:39.874Z,99304.40
2022-10-23T20:19:10.130Z,99304.20
2022-10-23T20:21:40.311Z,99302.00
2022-10-23T20:24:09.031Z,99303.60
2022-10-23T20:26:40.631Z,99299.40
2022-10-23T20:29:08.701Z,99295.60
2022-10-23T20:31:36.806Z,99286.80
2022-10-23T20:34:04.691Z,99286.00
2022-10-23T20:36:35.061Z,99286.60
2022-10-23T20:39:06.068Z,99277.60
2022-10-23T20:41:36.960Z,99283.60
2022-10-23T20:44:06.875Z,99281.40
2022-10-23T20:46:34.704Z,99277.80
2022-10-23T20:49:02.442Z,99275.80
2022-10-23T20:51:30.351Z,99280.00
2022-10-23T20:53:58.088Z,99278.00
2022-10-23T20:56:31.056Z,99274.00
2022-10-23T20:59:06.645Z,99271.40
2022-10-23T21:01:34.898Z,99267.60
2022-10-23T21:04:03.162Z,99267.00
2022-10-23T21:06:45.666Z,99266.80
2022-10-23T21:09:13.831Z,99256.00
2022-10-23T21:11:41.533Z,99254.80
2022-10-23T21:14:09.290Z,99252.00
2022-10-23T21:16:44.475Z,99246.60
2022-10-23T21:19:16.209Z,99256.00
2022-10-23T21:21:44.274Z,99251.00
2022-10-23T21:24:15.617Z,99250.20
2022-10-23T21:26:44.304Z,99246.20
2022-10-23T21:29:20.847Z,99255.20
2022-10-23T21:31:57.140Z,99255.40
2022-10-23T21:34:25.843Z,99260.00
2022-10-23T21:37:11.870Z,99261.20
2022-10-23T21:39:42.720Z,99268.80
2022-10-23T21:42:12.202Z,99271.40
2022-10-23T21:44:40.199Z,99267.00
2022-10-23T21:47:08.165Z,99258.00
2022-10-23T21:49:35.927Z,99258.80
2022-10-23T21:52:04.542Z,99258.20
2022-10-23T21:54:32.514Z,99260.20
2022-10-23T21:57:00.385Z,99258.80
2022-10-23T21:59:31.512Z,99254.60
2022-10-23T22:01:59.754Z,99248.00
2022-10-23T22:04:27.701Z,99241.80
2022-10-23T22:06:55.533Z,99244.00
2022-10-23T22:09:23.532Z,99239.80
2022-10-23T22:11:52.936Z,99237.60
2022-10-23T22:14:22.309Z,99234.60
2022-10-23T22:16:50.207Z,99233.00
2022-10-23T22:19:19.475Z,99229.60
2022-10-23T22:21:48.871Z,99222.00
2022-10-23T22:24:17.706Z,99222.00
2022-10-23T22:26:51.906Z,99237.60
2022-10-23T22:29:25.760Z,99237.20
2022-10-23T22:31:53.544Z,99241.40
2022-10-23T22:34:27.228Z,99236.60
2022-10-23T22:37:12.328Z,99230.00
2022-10-23T22:39:40.270Z,99226.40
2022-10-23T22:42:08.039Z,99220.20
2022-10-23T22:44:35.807Z,99202.80
2022-10-23T22:47:03.791Z,99197.40
2022-10-23T22:49:31.494Z,99198.00
2022-10-23T22:51:59.303Z,99194.60
2022-10-23T22:54:27.197Z,99198.60
2022-10-23T22:56:54.940Z,99197.80
2022-10-23T22:59:22.665Z,99191.80
2022-10-23T23:01:50.475Z,99190.80
2022-10-23T23:07:08.745Z,99206.00
2022-10-23T23:09:43.082Z,99205.40
2022-10-23T23:12:12.683Z,99204.20
2022-10-23T23:14:41.006Z,99204.80
2022-10-23T23:17:09.132Z,99198.80
2022-10-23T23:19:36.846Z,99192.40
2022-10-23T23:22:04.638Z,99193.00
2022-10-23T23:24:32.396Z,99193.60
2022-10-23T23:27:00.121Z,99193.20
2022-10-23T23:29:29.672Z,99193.40
2022-10-23T23:31:57.634Z,99188.40
2022-10-23T23:34:25.462Z,99182.20
2022-10-23T23:36:53.280Z,99177.80
2022-10-23T23:39:21.031Z,99177.00
2022-10-23T23:41:48.765Z,99178.00
2022-10-23T23:44:16.554Z,99185.00
2022-10-23T23:46:44.486Z,99197.20
2022-10-23T23:49:12.210Z,99204.60
2022-10-23T23:51:40.064Z,99217.60
2022-10-23T23:54:07.790Z,99210.60
2022-10-23T23:56:35.486Z,99205.20
2022-10-23T23:59:03.293Z,99200.00
